Latest Weather Observations for Samuel Hill

IDQ60801

Issued at 5:02 pm EST Friday 28 August 2015 (issued every 30 minutes, with the page automatically refreshed every 10 minutes)

About weather observations | Map of weather stations | Latest weather observations for QLD | Other Formats
Station Details ID: 033308 Name: SAMUEL HILL AERO Lat: -22.74 Lon: 150.66 Height: 31.0 m
Data from the previous 72 hours. | See also: Recent months at Samuel Hill
Date/Time
EST
Temp
°C
App
Temp
°C
Dew
Point
Rel
Hum
%
Delta-T
°C
Wind Press
QNH
hPa
Press
MSL
hPa
Rain
since 9 am
mm
Dir
 
Spd
km/h
Gust
km/h
Spd
kts
Gust
kts
28/05:00pm 22.8 22.6 16.6 68 3.8 ENE 13 19 7 10 1018.4 1018.4 0.0
28/04:30pm 23.6 22.8 15.1 59 5.1 ENE 13 17 7 9 1017.8 1017.7 0.0
28/04:00pm 23.9 22.8 15.4 59 5.1 E 15 20 8 11 1017.4 1017.3 0.0
28/03:30pm 24.3 22.3 15.0 56 5.6 ENE 19 28 10 15 1017.2 1017.1 0.0
28/03:00pm 23.8 22.5 14.8 57 5.4 ENE 15 24 8 13 1017.3 1017.2 0.0
28/02:30pm 25.7 24.1 15.1 52 6.4 E 17 22 9 12 1017.6 1017.5 0.0
28/02:00pm 25.0 24.3 15.3 55 5.8 E 13 19 7 10 1018.0 1018.0 0.0
28/01:30pm 25.9 25.3 15.6 53 6.3 ESE 13 19 7 10 1018.4 1018.4 0.0
28/01:00pm 24.5 23.9 14.6 54 5.9 ESE 11 15 6 8 1018.9 1018.9 0.0
28/12:30pm 25.0 24.6 15.3 55 5.9 E 11 17 6 9 1019.3 1019.3 0.0
28/12:00pm 25.7 25.3 16.3 56 5.8 NE 13 17 7 9 1019.7 1019.7 0.0
28/11:30am 24.6 24.6 16.3 60 5.1 ENE 11 17 6 9 1020.2 1020.2 0.0
28/11:00am 23.4 23.6 15.7 62 4.6 SE 9 11 5 6 1020.9 1020.9 0.0
28/10:30am 24.5 25.6 16.5 61 4.9 E 6 13 3 7 1021.2 1021.2 0.0
28/10:00am 23.6 25.4 16.4 64 4.4 SSW 2 7 1 4 1021.5 1021.5 0.0
28/09:30am 22.9 23.8 16.2 66 4.1 NNE 6 9 3 5 1021.6 1021.6 0.0
28/09:00am 22.1 24.1 17.9 77 2.6 S 4 7 2 4 1021.8 1021.8 0.0
28/08:30am 19.8 21.8 17.8 88 1.2 WSW 4 7 2 4 1021.7 1021.7 0.0
28/08:00am 17.6 19.2 16.8 95 0.5 WSW 4 7 2 4 1021.4 1021.4 0.0
28/07:47am 17.3 18.8 16.7 96 0.4 WSW 4 6 2 3 1021.2 1021.2 0.0
28/07:30am 16.0 17.0 15.4 96 0.3 WSW 4 7 2 4 1021.0 1021.0 0.0
28/07:29am 15.9 17.3 15.3 96 0.3 WSW 2 7 1 4 1021.0 1021.0 0.0
28/07:00am 13.9 13.8 13.3 96 0.3 WSW 6 7 3 4 1021.1 1021.1 0.0
28/06:30am 13.0 13.0 12.4 96 0.3 E 4 9 2 5 1020.3 1020.3 0.0
28/06:00am 13.1 13.8 12.3 95 0.4 CALM 0 0 0 0 1020.1 1020.1 0.0
28/05:56am 13.1 13.8 12.3 95 0.4 CALM 0 0 0 0 1020.1 1020.1 0.0
28/05:53am 13.1 13.8 12.3 95 0.4 CALM 0 0 0 0 1020.0 1020.0 0.0
28/05:30am 13.2 13.6 12.6 96 0.3 SW 2 6 1 3 1019.7 1019.7 0.0
28/05:00am 13.3 14.1 12.5 95 0.4 CALM 0 6 0 3 1019.3 1019.3 0.0
28/04:42am 13.4 14.2 12.6 95 0.4 CALM 0 7 0 4 1019.3 1019.3 0.0
28/04:36am 13.3 14.1 12.5 95 0.4 CALM 0 0 0 0 1019.1 1019.1 0.0
28/04:30am 13.2 14.0 12.4 95 0.4 CALM 0 0 0 0 1019.0 1019.0 0.0
28/04:00am 13.9 14.9 13.3 96 0.3 CALM 0 0 0 0 1019.5 1019.5 0.0
28/03:30am 13.5 14.3 12.7 95 0.4 CALM 0 0 0 0 1019.2 1019.2 0.0
28/03:00am 13.9 14.5 13.1 95 0.4 SSW 2 6 1 3 1019.4 1019.4 0.0
28/02:30am 14.1 15.1 13.3 95 0.4 CALM 0 0 0 0 1019.4 1019.4 0.0
28/02:00am 13.5 13.2 12.6 94 0.5 NW 6 7 3 4 1019.3 1019.3 0.0
28/01:44am 13.6 13.2 12.5 93 0.6 WNW 6 7 3 4 1019.7 1019.7 0.0
28/01:30am 13.6 13.6 12.5 93 0.6 WNW 4 6 2 3 1019.8 1019.8 0.0
28/01:24am 13.7 14.1 12.6 93 0.6 WNW 2 6 1 3 1019.9 1019.9 0.0
28/01:00am 14.5 14.5 13.5 94 0.6 WNW 6 7 3 4 1020.0 1020.0 0.0
28/12:48am 14.5 15.6 13.5 94 0.6 CALM 0 6 0 3 1020.1 1020.1 0.0
28/12:30am 14.5 15.6 13.4 93 0.6 CALM 0 0 0 0 1020.2 1020.2 0.0
28/12:00am 14.8 16.0 13.7 93 0.6 CALM 0 0 0 0 1020.5 1020.5 0.0
 
Date/Time
EST
Temp
°C
App
Temp
°C
Dew
Point
Rel
Hum
%
Delta-T
°C
Wind Press
QNH
hPa
Press
MSL
hPa
Rain
since 9 am
mm
Dir
 
Spd
km/h
Gust
km/h
Spd
kts
Gust
kts
27/11:30pm 14.5 15.4 13.0 91 0.8 CALM 0 0 0 0 1020.6 1020.6 0.0
27/11:00pm 15.3 16.6 14.2 93 0.6 CALM 0 0 0 0 1020.8 1020.8 0.0
27/10:30pm 15.4 16.8 14.3 93 0.6 CALM 0 0 0 0 1020.8 1020.8 0.0
27/10:00pm 15.6 16.6 14.3 92 0.7 WNW 2 7 1 4 1021.2 1021.2 0.0
27/09:30pm 16.2 17.9 15.1 93 0.6 CALM 0 0 0 0 1021.2 1021.2 0.0
27/09:00pm 16.5 18.1 14.9 90 0.9 CALM 0 0 0 0 1021.3 1021.3 0.0
27/08:30pm 16.8 18.4 15.0 89 1.0 CALM 0 0 0 0 1021.1 1021.1 0.0
27/08:00pm 17.3 19.0 15.3 88 1.2 CALM 0 0 0 0 1020.9 1020.9 0.0
27/07:30pm 18.0 18.8 15.8 87 1.3 ENE 6 6 3 3 1020.8 1020.8 0.0
27/07:00pm 19.1 20.0 16.1 83 1.8 NNE 6 7 3 4 1020.2 1020.2 0.0
27/06:30pm 19.9 20.6 16.2 79 2.2 NNE 7 9 4 5 1019.8 1019.8 0.0
27/06:00pm 20.6 20.9 16.0 75 2.8 N 9 13 5 7 1019.5 1019.5 0.0
27/05:30pm 21.8 21.6 15.6 68 3.7 NE 11 17 6 9 1019.3 1019.3 0.0
27/05:00pm 22.9 21.7 15.0 61 4.7 NE 15 22 8 12 1018.9 1018.9 0.0
27/04:30pm 23.9 23.0 15.9 61 4.9 NE 15 22 8 12 1018.5 1018.5 0.0
27/04:00pm 24.5 23.3 16.0 59 5.2 NNE 17 24 9 13 1018.4 1018.4 0.0
27/03:30pm 24.7 23.7 15.6 57 5.5 N 15 28 8 15 1018.4 1018.4 0.0
27/03:00pm 24.7 23.2 15.3 56 5.7 NNE 17 24 9 13 1018.3 1018.3 0.0
27/02:30pm 25.4 23.8 15.1 53 6.2 NNE 17 28 9 15 1018.3 1018.3 0.0
27/02:00pm 25.9 24.6 13.7 47 7.2 N 13 22 7 12 1018.4 1018.4 0.0
27/01:30pm 25.9 25.1 15.0 51 6.6 N 13 20 7 11 1018.8 1018.8 0.0
27/01:00pm 25.4 24.5 14.8 52 6.3 NE 13 20 7 11 1019.2 1019.2 0.0
27/12:30pm 25.5 24.5 14.6 51 6.5 NNE 13 20 7 11 1019.8 1019.8 0.0
27/12:00pm 24.2 23.0 15.1 56 5.4 NNE 15 20 8 11 1020.3 1020.3 0.0
27/11:30am 25.2 25.2 16.3 57 5.5 NE 11 22 6 12 1020.5 1020.5 0.0
27/11:00am 23.4 23.4 16.2 64 4.4 NE 11 17 6 9 1021.1 1021.1 0.0
27/10:30am 23.1 24.3 16.9 68 3.8 ENE 6 13 3 7 1021.6 1021.6 0.0
27/10:00am 22.5 23.3 17.4 73 3.1 ESE 9 15 5 8 1021.8 1021.8 0.0
27/09:30am 21.8 23.2 17.4 76 2.7 WSW 6 11 3 6 1022.1 1022.1 0.0
27/09:00am 21.2 23.8 18.4 84 1.7 WSW 2 7 1 4 1022.2 1022.2 0.0
27/08:30am 19.3 22.0 17.8 91 0.9 CALM 0 0 0 0 1022.0 1022.0 0.0
27/08:00am 17.6 19.4 16.5 93 0.7 W 2 6 1 3 1021.7 1021.7 0.0
27/07:59am 17.4 18.8 16.3 93 0.7 W 4 7 2 4 1021.7 1021.7 0.0
27/07:48am 16.6 18.1 15.6 94 0.6 W 2 7 1 4 1021.6 1021.6 0.0
27/07:30am 15.5 17.0 14.7 95 0.5 CALM 0 0 0 0 1021.6 1021.6 0.0
27/07:00am 14.1 15.1 13.3 95 0.4 CALM 0 0 0 0 1021.0 1021.0 0.0
27/06:30am 13.5 14.3 12.7 95 0.4 CALM 0 0 0 0 1020.9 1020.9 0.0
27/06:00am 13.3 14.1 12.4 94 0.5 CALM 0 0 0 0 1020.5 1020.5 0.0
27/05:42am 13.0 13.7 12.1 94 0.5 CALM 0 0 0 0 1020.0 1020.0 0.0
27/05:39am 13.0 13.7 12.1 94 0.5 CALM 0 0 0 0 1020.0 1020.0 0.0
27/05:30am 13.2 13.9 12.3 94 0.5 CALM 0 0 0 0 1019.9 1019.9 0.0
27/05:16am 13.3 14.1 12.4 94 0.5 CALM 0 0 0 0 1020.0 1020.0 0.0
27/05:14am 13.3 14.1 12.4 94 0.5 CALM 0 0 0 0 1020.0 1020.0 0.0
27/05:00am 13.7 14.6 12.8 94 0.5 CALM 0 0 0 0 1019.9 1019.9 0.0
27/04:59am 13.7 14.6 12.8 94 0.5 CALM 0 0 0 0 1019.9 1019.9 0.0
27/04:34am 14.1 15.1 13.3 95 0.4 CALM 0 0 0 0 1019.8 1019.8 0.0
27/04:30am 14.0 15.0 13.2 95 0.4 CALM 0 0 0 0 1019.8 1019.8 0.0
27/04:00am 15.0 16.0 14.4 96 0.3 W 2 7 1 4 1019.9 1019.9 0.0
27/03:50am 15.1 15.4 14.5 96 0.3 W 6 7 3 4 1019.9 1019.9 0.0
27/03:30am 14.5 15.4 13.9 96 0.3 W 2 6 1 3 1020.0 1020.0 0.0
27/03:23am 14.2 14.1 13.4 95 0.4 W 6 7 3 4 1020.1 1020.1 0.0
27/03:00am 13.4 14.2 12.5 94 0.5 CALM 0 0 0 0 1020.1 1020.1 0.0
27/02:39am 13.3 14.1 12.4 94 0.5 CALM 0 0 0 0 1020.1 1020.1 0.0
27/02:38am 13.3 14.1 12.4 94 0.5 CALM 0 0 0 0 1020.2 1020.2 0.0
27/02:30am 13.6 14.4 12.7 94 0.5 CALM 0 0 0 0 1020.2 1020.2 0.0
27/02:00am 13.7 14.5 12.6 93 0.6 CALM 0 0 0 0 1020.4 1020.4 0.0
27/01:30am 13.8 14.6 12.7 93 0.6 CALM 0 0 0 0 1020.4 1020.4 0.0
27/01:16am 14.0 14.9 12.9 93 0.6 CALM 0 6 0 3 1020.5 1020.5 0.0
27/01:00am 14.2 15.1 12.9 92 0.7 CALM 0 0 0 0 1020.6 1020.6 0.0
27/12:55am 14.3 15.2 13.0 92 0.7 CALM 0 0 0 0 1020.7 1020.7 0.0
27/12:30am 14.1 15.0 12.8 92 0.7 CALM 0 0 0 0 1021.0 1021.0 0.0
27/12:00am 14.5 15.5 13.2 92 0.7 CALM 0 0 0 0 1021.1 1021.1 0.0
 
Date/Time
EST
Temp
°C
App
Temp
°C
Dew
Point
Rel
Hum
%
Delta-T
°C
Wind Press
QNH
hPa
Press
MSL
hPa
Rain
since 9 am
mm
Dir
 
Spd
km/h
Gust
km/h
Spd
kts
Gust
kts
26/11:30pm 14.6 15.6 13.1 91 0.8 CALM 0 0 0 0 1021.2 1021.2 0.0
26/11:00pm 15.2 16.4 13.7 91 0.8 CALM 0 0 0 0 1021.4 1021.4 0.0
26/10:30pm 15.3 16.5 13.7 90 0.9 CALM 0 0 0 0 1021.4 1021.4 0.0
26/10:00pm 16.1 17.5 14.3 89 1.0 CALM 0 0 0 0 1021.4 1021.4 0.0
26/09:30pm 17.1 18.1 15.4 90 1.0 W 4 6 2 3 1021.2 1021.2 0.0
26/09:00pm 17.5 18.3 15.8 90 1.0 N 6 6 3 3 1021.2 1021.2 0.0
26/08:30pm 18.0 18.9 16.2 89 1.1 NNE 6 6 3 3 1021.1 1021.1 0.0
26/08:00pm 18.5 19.4 16.7 89 1.1 NNE 7 9 4 5 1020.7 1020.7 0.0
26/07:30pm 18.7 19.2 16.5 87 1.3 NNE 9 11 5 6 1020.4 1020.4 0.0
26/07:00pm 19.0 19.4 16.4 85 1.6 NNE 9 9 5 5 1020.3 1020.3 0.0
26/06:30pm 19.7 20.6 16.5 82 1.9 NNE 7 9 4 5 1020.0 1020.0 0.0
26/06:00pm 20.6 21.2 16.8 79 2.3 NNE 9 11 5 6 1019.7 1019.7 0.0
26/05:30pm 21.6 21.9 17.0 75 2.8 NNE 11 17 6 9 1019.3 1019.3 0.0
26/05:00pm 22.7 22.2 16.9 70 3.6 NNE 15 20 8 11 1018.7 1018.7 0.0
26/04:30pm 23.4 22.6 17.2 68 3.8 NE 17 24 9 13 1018.4 1018.4 0.0
26/04:00pm 24.2 23.1 17.4 65 4.2 NE 19 26 10 14 1018.0 1018.0 0.0
26/03:30pm 25.1 24.5 17.6 63 4.7 NE 17 28 9 15 1017.8 1017.7 0.0
26/03:00pm 25.3 24.2 17.2 61 5.0 NNE 19 30 10 16 1017.9 1017.9 0.0
26/02:30pm 26.3 26.2 17.9 60 5.3 NNE 15 24 8 13 1018.0 1018.0 0.0
26/02:00pm 26.4 26.2 17.7 58 5.5 NNE 15 22 8 12 1018.4 1018.4 0.0
26/01:30pm 26.5 25.4 17.3 57 5.8 NNE 19 26 10 14 1018.7 1018.7 0.0
26/01:00pm 26.4 26.7 16.9 56 5.9 NNE 11 17 6 9 1019.2 1019.2 0.0
26/12:30pm 26.8 26.7 17.0 55 6.1 NNW 13 19 7 10 1019.6 1019.6 0.0
26/12:00pm 26.0 26.3 17.1 58 5.5 NNW 11 17 6 9 1020.1 1020.1 0.0
26/11:30am 25.4 24.9 16.0 56 5.7 NNE 13 19 7 10 1020.7 1020.7 0.0
26/11:00am 25.3 25.3 17.2 61 5.0 N 13 20 7 11 1021.2 1021.2 0.0
26/10:30am 23.8 24.4 16.8 65 4.3 N 9 15 5 8 1021.6 1021.6 0.0
26/10:00am 24.3 25.7 17.8 67 4.1 NE 7 9 4 5 1021.9 1021.9 0.0
26/09:30am 24.0 24.3 18.0 69 3.8 N 13 20 7 11 1022.1 1022.1 0.0
26/09:00am 23.1 24.4 18.4 75 2.9 N 9 15 5 8 1022.0 1022.0 0.2
26/08:30am 21.1 23.5 18.7 86 1.5 NE 4 7 2 4 1021.8 1021.8 0.2
26/08:00am 19.3 22.2 18.3 94 0.6 CALM 0 0 0 0 1021.6 1021.6 0.2
26/07:51am 18.7 21.5 17.9 95 0.5 CALM 0 0 0 0 1021.5 1021.5 0.2
26/07:46am 18.5 21.2 17.7 95 0.5 CALM 0 0 0 0 1021.4 1021.4 0.2
26/07:30am 17.1 19.3 16.5 96 0.4 CALM 0 0 0 0 1021.4 1021.4 0.2
26/07:00am 15.3 16.8 14.7 96 0.3 CALM 0 0 0 0 1021.1 1021.1 0.2
26/06:30am 14.5 15.7 13.9 96 0.3 CALM 0 0 0 0 1020.6 1020.6 0.2
26/06:00am 14.3 15.4 13.5 95 0.4 CALM 0 0 0 0 1020.5 1020.5 0.2
26/05:30am 13.8 14.7 13.0 95 0.4 CALM 0 0 0 0 1020.2 1020.2 0.0
26/05:00am 14.3 15.4 13.5 95 0.4 CALM 0 0 0 0 1019.9 1019.9 0.0
26/04:46am 14.1 15.1 13.1 94 0.6 CALM 0 0 0 0 1019.6 1019.6 0.0
26/04:30am 14.1 15.1 13.1 94 0.6 CALM 0 0 0 0 1019.4 1019.4 0.0
26/04:16am 14.2 15.2 13.2 94 0.6 CALM 0 0 0 0 1019.3 1019.3 0.0
26/04:00am 14.2 15.2 13.2 94 0.6 CALM 0 0 0 0 1019.5 1019.5 0.0
26/03:30am 14.7 15.9 13.7 94 0.6 CALM 0 0 0 0 1019.5 1019.5 0.0
26/03:16am 14.9 16.2 14.1 95 0.5 CALM 0 0 0 0 1019.6 1019.6 0.0
26/03:09am 14.9 16.2 14.1 95 0.5 CALM 0 0 0 0 1019.6 1019.6 0.0
26/03:00am 14.6 15.7 13.6 94 0.6 CALM 0 0 0 0 1019.5 1019.5 0.0
26/02:38am 14.8 16.0 13.8 94 0.6 CALM 0 0 0 0 1019.6 1019.6 0.0
26/02:30am 14.9 16.2 14.1 95 0.5 CALM 0 0 0 0 1019.7 1019.7 0.0
26/02:22am 15.0 16.3 14.2 95 0.5 CALM 0 0 0 0 1019.6 1019.6 0.0
26/02:00am 14.7 15.9 13.7 94 0.6 CALM 0 0 0 0 1019.5 1019.5 0.0
26/01:58am 14.7 15.9 13.7 94 0.6 CALM 0 0 0 0 1019.6 1019.6 0.0
26/01:52am 14.7 15.9 13.7 94 0.6 CALM 0 0 0 0 1019.6 1019.6 0.0
26/01:50am 14.7 15.9 13.7 94 0.6 CALM 0 0 0 0 1019.5 1019.5 0.0
26/01:39am 15.0 16.3 14.2 95 0.5 CALM 0 0 0 0 1019.6 1019.6 0.0
26/01:30am 15.2 16.5 14.2 94 0.6 CALM 0 0 0 0 1019.7 1019.7 0.0
26/01:12am 14.9 16.1 13.9 94 0.6 CALM 0 0 0 0 1019.8 1019.8 0.0
26/01:00am 14.7 15.8 13.6 93 0.6 CALM 0 0 0 0 1019.9 1019.9 0.0
26/12:51am 14.9 16.1 13.8 93 0.6 CALM 0 0 0 0 1020.1 1020.1 0.0
26/12:30am 14.7 15.8 13.4 92 0.7 CALM 0 0 0 0 1020.4 1020.4 0.0
26/12:00am 15.3 15.8 14.0 92 0.7 W 4 6 2 3 1020.8 1020.8 0.0
 
Date/Time
EST
Temp
°C
App
Temp
°C
Dew
Point
Rel
Hum
%
Delta-T
°C
Wind Press
QNH
hPa
Press
MSL
hPa
Rain
since 9 am
mm
Dir
 
Spd
km/h
Gust
km/h
Spd
kts
Gust
kts
25/11:30pm 15.5 16.2 14.5 94 0.6 W 4 7 2 4 1020.6 1020.6 0.0
25/11:00pm 16.0 17.6 14.9 93 0.6 CALM 0 6 0 3 1020.7 1020.7 0.0
25/10:30pm 16.1 17.6 14.6 91 0.9 CALM 0 0 0 0 1020.8 1020.8 0.0
25/10:00pm 16.2 17.7 14.6 90 0.9 CALM 0 0 0 0 1020.8 1020.8 0.0
25/09:30pm 16.8 18.5 15.2 90 0.9 CALM 0 0 0 0 1020.5 1020.5 0.0
25/09:00pm 17.4 19.2 15.4 88 1.2 CALM 0 0 0 0 1020.4 1020.4 0.0
25/08:30pm 18.4 20.5 16.2 87 1.3 CALM 0 0 0 0 1020.2 1020.2 0.0
25/08:00pm 19.6 20.9 17.6 88 1.2 NNW 7 9 4 5 1020.0 1020.0 0.0
25/07:30pm 19.6 20.7 17.2 86 1.5 N 7 7 4 4 1019.7 1019.7 0.0
25/07:00pm 19.6 20.4 16.4 82 1.9 N 7 9 4 5 1019.4 1019.4 0.0
25/06:30pm 20.4 21.2 16.4 78 2.4 NNE 7 7 4 4 1019.1 1019.1 0.0
25/06:00pm 21.4 21.9 16.6 74 2.9 N 9 11 5 6 1018.9 1018.9 0.0
25/05:30pm 22.7 22.8 16.5 68 3.8 N 11 17 6 9 1018.7 1018.7 0.0

Other Formats:

Comma delimited format used in spreadsheet applications
http://www.bom.gov.au/fwo/IDQ60801/IDQ60801.94370.axf

JavaScript Object Notation format (JSON) in row-major order
http://www.bom.gov.au/fwo/IDQ60801/IDQ60801.94370.json